Waynesboro, VA (22980)

4:07 PM EDT on August 30, 2015 (GMT -0400)
Basic City Weather | | Change Station
CLOSE
Current Station
Personal Weather Station
Location: Waynesboro, VA
Elevation: 1319 ft
Nearby Weather Stations

Elev 1319 ft 38.08 °N, 78.87 °W | Updated 12 seconds ago

Partly Cloudy
Partly Cloudy
82.4 °F
Feels Like 82 °F
N
0.0
Wind Variable Wind from ESE
Gusts 0.0 mph

Today
High -- | Low -- °F
--% Chance of Precip.
Yesterday
High -- | Low -- °F
Precip. -- in
6:43 AM 7:48 PM
Full, 98% visible
Pressure 30.13 in
Visibility 10.0 miles
Clouds Clear
Heat Index 82 °F
Dew Point 58 °F
Humidity 44%
Rainfall 0.00 in
Snow Depth Not available.
UV 6 out of 12
Pollen 8.40 out of 12
Air Quality Not available.
Flu Activity Not available.
METAR KSHD 301955Z AUTO 21007KT 10SM CLR 31/13 A3013 RMK AO2 T03090129
Pressure 30.13 in
Visibility 10.0 miles
Clouds Clear
Heat Index 82 °F
Dew Point 58 °F
Humidity 44%
Rainfall 0.00 in
Snow Depth Not available.
UV 6 out of 12
Pollen 8.40 out of 12
Air Quality Not available.
Flu Activity Not available.
METAR KSHD 301955Z AUTO 21007KT 10SM CLR 31/13 A3013 RMK AO2 T03090129

10-Day Weather Forecast

×

Almanac

Astronomy

Aug. 30, 2015 Rise Set
Actual Time
Civil Twilight
Nautical Twilight
Astronomical Twilight
Moon
Length of Visible Light
Length of Day
Tomorrow will be .
, % of the Moon is Illuminated

Today's Extremes

State Highs State Lows

Community

WunderPhotos

Upload Photos

1,851,048 photos uploaded!

WunderBlogs® & News

Nearby

Air Quality

  Air Quality AQ Index Pollutant
Not available.

Snow Depth

Station Depth Elevation

Earthquake Activity

City Distance Mag. Time & Date
Minimum magnitude displayed is 2.5.

Coastal Water Temperatures

Place Temperature

Stations

Nearby Weather Stations

Station Location Temp. Windchill Dew Point Humidity Wind Precip. Elev Updated Type